createdAt,value
2019-02-09T00:00:57.884Z,0
2019-02-09T00:01:57.615Z,0
2019-02-09T00:02:57.848Z,0
2019-02-09T00:03:59.421Z,0
2019-02-09T00:04:57.834Z,0
2019-02-09T00:05:57.796Z,0
2019-02-09T00:06:57.780Z,0
2019-02-09T00:07:57.773Z,0
2019-02-09T00:08:57.505Z,0
2019-02-09T00:09:57.766Z,0
2019-02-09T00:10:57.471Z,0
2019-02-09T00:11:57.694Z,0
2019-02-09T00:12:57.681Z,0
2019-02-09T00:13:57.661Z,0
2019-02-09T00:14:57.655Z,0
2019-02-09T00:15:57.622Z,0
2019-02-09T00:16:57.625Z,0
2019-02-09T00:17:57.604Z,0
2019-02-09T00:18:57.590Z,0
2019-02-09T00:19:57.564Z,0
2019-02-09T00:20:57.550Z,0
2019-02-09T00:21:57.551Z,0
2019-02-09T00:22:57.514Z,0
2019-02-09T00:23:57.248Z,0
2019-02-09T00:24:57.477Z,0
2019-02-09T00:25:57.461Z,0
2019-02-09T00:26:57.443Z,0
2019-02-09T00:27:57.430Z,0
2019-02-09T00:28:57.405Z,0
2019-02-09T00:29:57.398Z,0
2019-02-09T00:30:57.378Z,0
2019-02-09T00:31:57.366Z,0
2019-02-09T00:32:57.346Z,0
2019-02-09T00:33:57.332Z,0
2019-02-09T00:34:57.309Z,0
2019-02-09T00:35:57.287Z,0
2019-02-09T00:36:57.288Z,0
2019-02-09T00:37:57.023Z,0
2019-02-09T00:38:56.998Z,0
2019-02-09T00:39:56.981Z,0
2019-02-09T00:40:57.220Z,0
2019-02-09T00:41:57.189Z,0
2019-02-09T00:42:57.174Z,0
2019-02-09T00:43:57.165Z,0
2019-02-09T00:44:57.378Z,0
2019-02-09T00:45:57.207Z,0
2019-02-09T00:46:57.108Z,0
2019-02-09T00:47:57.090Z,0
2019-02-09T00:48:57.075Z,0
2019-02-09T00:49:57.052Z,0
2019-02-09T00:50:57.048Z,0
2019-02-09T00:51:57.020Z,0
2019-02-09T00:52:57.005Z,0
2019-02-09T00:53:56.992Z,0
2019-02-09T00:54:56.720Z,0
2019-02-09T00:55:56.957Z,0
2019-02-09T00:56:56.688Z,0
2019-02-09T00:57:56.982Z,0
2019-02-09T00:58:56.898Z,0
2019-02-09T01:00:01.506Z,0
2019-02-09T01:00:56.867Z,0
2019-02-09T01:01:56.857Z,0
2019-02-09T01:02:56.845Z,0
2019-02-09T01:03:56.580Z,0
2019-02-09T01:04:56.549Z,0
2019-02-09T01:05:56.533Z,0
2019-02-09T01:06:56.764Z,0
2019-02-09T01:07:56.754Z,0
2019-02-09T01:08:56.756Z,0
2019-02-09T01:09:56.768Z,0
2019-02-09T01:10:56.696Z,0
2019-02-09T01:11:56.679Z,0
2019-02-09T01:12:56.674Z,0
2019-02-09T01:13:56.448Z,0
2019-02-09T01:14:56.630Z,0
2019-02-09T01:15:56.115Z,0
2019-02-09T01:16:56.590Z,0
2019-02-09T01:17:56.578Z,0
2019-02-09T01:18:56.563Z,0
2019-02-09T01:19:56.538Z,0
2019-02-09T01:20:56.530Z,0
2019-02-09T01:21:56.562Z,0
2019-02-09T01:22:56.511Z,0
2019-02-09T01:23:56.477Z,0
2019-02-09T01:24:56.455Z,0
2019-02-09T01:25:56.450Z,0
2019-02-09T01:26:55.927Z,0
2019-02-09T01:27:56.407Z,0
2019-02-09T01:28:56.388Z,0
2019-02-09T01:30:04.449Z,0
2019-02-09T01:30:56.359Z,0
2019-02-09T01:31:56.341Z,0
2019-02-09T01:32:56.138Z,0
2019-02-09T01:33:56.307Z,0
2019-02-09T01:34:56.281Z,0
2019-02-09T01:35:56.020Z,0
2019-02-09T01:36:56.250Z,0
2019-02-09T01:37:56.235Z,0
2019-02-09T01:38:55.983Z,0
2019-02-09T01:39:55.977Z,0
2019-02-09T01:40:56.174Z,0
2019-02-09T01:41:56.160Z,0
2019-02-09T01:42:56.152Z,0
2019-02-09T01:43:56.133Z,0
2019-02-09T01:44:56.105Z,0
2019-02-09T01:45:56.090Z,0
2019-02-09T01:46:56.080Z,0
2019-02-09T01:47:56.071Z,0
2019-02-09T01:48:56.038Z,0
2019-02-09T01:49:56.020Z,0
2019-02-09T01:50:56.003Z,0
2019-02-09T01:51:55.986Z,0
2019-02-09T01:52:55.972Z,0
2019-02-09T01:53:55.854Z,0
2019-02-09T01:54:55.929Z,0
2019-02-09T01:55:55.915Z,0
2019-02-09T01:56:55.898Z,0
2019-02-09T01:57:55.880Z,0
2019-02-09T01:58:55.618Z,0
2019-02-09T01:59:55.845Z,0
2019-02-09T02:00:55.584Z,0
2019-02-09T02:01:55.810Z,0
2019-02-09T02:02:55.796Z,0
2019-02-09T02:03:55.773Z,0
2019-02-09T02:04:55.759Z,0
2019-02-09T02:05:55.745Z,0
2019-02-09T02:06:55.725Z,0
2019-02-09T02:07:55.726Z,0
2019-02-09T02:08:55.708Z,0
2019-02-09T02:09:55.423Z,0
2019-02-09T02:10:55.654Z,0
2019-02-09T02:11:54.899Z,0
2019-02-09T02:12:55.618Z,0
2019-02-09T02:13:55.610Z,0
2019-02-09T02:14:55.337Z,0
2019-02-09T02:15:55.572Z,0
2019-02-09T02:16:55.545Z,0
2019-02-09T02:17:55.282Z,0
2019-02-09T02:18:55.516Z,0
2019-02-09T02:19:55.505Z,0
2019-02-09T02:20:55.480Z,0
2019-02-09T02:21:55.463Z,0
2019-02-09T02:22:55.445Z,0
2019-02-09T02:23:55.179Z,0
2019-02-09T02:24:55.408Z,0
2019-02-09T02:25:55.143Z,0
2019-02-09T02:26:55.133Z,0
2019-02-09T02:27:55.124Z,0
2019-02-09T02:28:55.338Z,0
2019-02-09T02:29:55.079Z,0
2019-02-09T02:30:55.065Z,0
2019-02-09T02:31:55.291Z,0
2019-02-09T02:32:56.470Z,0
2019-02-09T02:33:55.265Z,0
2019-02-09T02:34:55.236Z,0
2019-02-09T02:35:55.227Z,0
2019-02-09T02:36:54.956Z,0
2019-02-09T02:37:55.193Z,0
2019-02-09T02:38:54.928Z,0
2019-02-09T02:39:55.149Z,0
2019-02-09T02:40:55.132Z,0
2019-02-09T02:41:55.117Z,0
2019-02-09T02:42:55.097Z,0
2019-02-09T02:43:55.083Z,0
2019-02-09T02:44:55.060Z,0
2019-02-09T02:45:55.045Z,0
2019-02-09T02:46:55.032Z,0
2019-02-09T02:47:54.769Z,0
2019-02-09T02:48:55.013Z,0
2019-02-09T02:49:54.978Z,0
2019-02-09T02:50:54.717Z,0
2019-02-09T02:51:54.944Z,0
2019-02-09T02:52:54.941Z,0
2019-02-09T02:53:54.968Z,0
2019-02-09T02:54:54.907Z,0
2019-02-09T02:55:54.885Z,0
2019-02-09T02:56:54.865Z,0
2019-02-09T02:57:54.621Z,0
2019-02-09T02:58:54.821Z,0
2019-02-09T02:59:54.806Z,0
2019-02-09T03:00:54.791Z,0
2019-02-09T03:01:54.521Z,0
2019-02-09T03:02:54.515Z,0
2019-02-09T03:03:54.485Z,0
2019-02-09T03:04:54.723Z,0
2019-02-09T03:05:54.703Z,0
2019-02-09T03:06:55.101Z,0
2019-02-09T03:07:54.671Z,0
2019-02-09T03:08:54.403Z,0
2019-02-09T03:09:54.388Z,0
2019-02-09T03:10:54.629Z,0
2019-02-09T03:11:54.599Z,0
2019-02-09T03:12:54.588Z,0
2019-02-09T03:13:54.569Z,0
2019-02-09T03:14:54.576Z,0
2019-02-09T03:15:54.549Z,0
2019-02-09T03:16:54.528Z,0
2019-02-09T03:17:54.501Z,0
2019-02-09T03:18:54.512Z,0
2019-02-09T03:19:54.462Z,0
2019-02-09T03:20:54.444Z,0
2019-02-09T03:21:54.430Z,0
2019-02-09T03:22:54.438Z,0
2019-02-09T03:23:54.399Z,0
2019-02-09T03:24:54.388Z,0
2019-02-09T03:25:54.366Z,0
2019-02-09T03:26:54.368Z,0
2019-02-09T03:27:54.326Z,0
2019-02-09T03:28:53.817Z,0
2019-02-09T03:29:54.291Z,0
2019-02-09T03:30:55.628Z,0
2019-02-09T03:31:54.304Z,0
2019-02-09T03:32:54.113Z,0
2019-02-09T03:33:54.221Z,0
2019-02-09T03:34:54.233Z,0
2019-02-09T03:35:53.958Z,0
2019-02-09T03:36:54.228Z,0
2019-02-09T03:37:54.162Z,0
2019-02-09T03:38:54.144Z,0
2019-02-09T03:39:53.890Z,0
2019-02-09T03:40:54.121Z,0
2019-02-09T03:41:54.091Z,0
2019-02-09T03:42:53.843Z,0
2019-02-09T03:43:54.064Z,0
2019-02-09T03:44:54.038Z,0
2019-02-09T03:45:53.770Z,0
2019-02-09T03:46:54.006Z,0
2019-02-09T03:47:53.990Z,0
2019-02-09T03:48:54.157Z,0
2019-02-09T03:49:53.995Z,0
2019-02-09T03:50:53.934Z,0
2019-02-09T03:51:53.918Z,0
2019-02-09T03:52:53.909Z,0
2019-02-09T03:53:53.431Z,0
2019-02-09T03:54:53.867Z,0
2019-02-09T03:55:53.608Z,0
2019-02-09T03:56:53.843Z,0
2019-02-09T03:57:53.840Z,0
2019-02-09T03:58:53.800Z,0
2019-02-09T03:59:53.822Z,0
2019-02-09T04:01:02.316Z,0
2019-02-09T04:01:53.754Z,0
2019-02-09T04:02:53.740Z,0
2019-02-09T04:03:53.714Z,0
2019-02-09T04:04:53.463Z,0
2019-02-09T04:05:53.683Z,0
2019-02-09T04:06:53.182Z,0
2019-02-09T04:07:53.405Z,0
2019-02-09T04:08:53.630Z,0
2019-02-09T04:09:53.371Z,0
2019-02-09T04:10:53.355Z,0
2019-02-09T04:11:53.587Z,0
2019-02-09T04:12:53.323Z,0
2019-02-09T04:13:53.547Z,0
2019-02-09T04:14:53.554Z,0
2019-02-09T04:15:53.514Z,0
2019-02-09T04:16:53.502Z,0
2019-02-09T04:17:53.487Z,0
2019-02-09T04:18:53.469Z,0
2019-02-09T04:19:53.450Z,0
2019-02-09T04:20:53.201Z,0
2019-02-09T04:21:53.167Z,0
2019-02-09T04:22:53.411Z,0
2019-02-09T04:23:53.381Z,0
2019-02-09T04:24:53.362Z,0
2019-02-09T04:25:53.347Z,0
2019-02-09T04:26:53.331Z,0
2019-02-09T04:27:53.324Z,0
2019-02-09T04:28:53.292Z,0
2019-02-09T04:29:53.290Z,0
2019-02-09T04:30:53.280Z,0
2019-02-09T04:31:53.255Z,0
2019-02-09T04:32:53.264Z,0
2019-02-09T04:33:53.230Z,0
2019-02-09T04:34:53.204Z,0
2019-02-09T04:35:53.181Z,0
2019-02-09T04:36:53.181Z,0
2019-02-09T04:37:52.906Z,0
2019-02-09T04:38:53.131Z,0
2019-02-09T04:39:53.113Z,0
2019-02-09T04:40:53.107Z,0
2019-02-09T04:41:53.090Z,0
2019-02-09T04:42:52.571Z,0
2019-02-09T04:43:53.059Z,0
2019-02-09T04:44:53.033Z,0
2019-02-09T04:45:53.023Z,0
2019-02-09T04:46:53.034Z,0
2019-02-09T04:47:53.044Z,0
2019-02-09T04:48:52.961Z,0
2019-02-09T04:49:52.943Z,0
2019-02-09T04:50:52.686Z,0
2019-02-09T04:51:52.699Z,0
2019-02-09T04:52:52.895Z,0
2019-02-09T04:53:52.885Z,0
2019-02-09T04:54:52.872Z,0
2019-02-09T04:55:52.861Z,0
2019-02-09T04:56:52.835Z,0
2019-02-09T04:57:52.819Z,0
2019-02-09T04:58:52.806Z,0
2019-02-09T04:59:52.831Z,0
2019-02-09T05:00:53.087Z,0
2019-02-09T05:01:52.756Z,0
2019-02-09T05:02:52.491Z,0
2019-02-09T05:03:52.471Z,0
2019-02-09T05:04:52.703Z,0
2019-02-09T05:05:52.685Z,0
2019-02-09T05:06:52.681Z,0
2019-02-09T05:07:52.416Z,0
2019-02-09T05:08:52.385Z,0
2019-02-09T05:09:52.655Z,0
2019-02-09T05:10:52.607Z,0
2019-02-09T05:11:52.594Z,0
2019-02-09T05:12:52.320Z,0
2019-02-09T05:13:52.554Z,0
2019-02-09T05:14:52.537Z,0
2019-02-09T05:15:52.523Z,0
2019-02-09T05:16:52.511Z,0
2019-02-09T05:17:52.495Z,0
2019-02-09T05:18:52.476Z,0
2019-02-09T05:19:52.466Z,0
2019-02-09T05:20:52.488Z,0
2019-02-09T05:21:52.428Z,0
2019-02-09T05:22:52.406Z,0
2019-02-09T05:23:52.391Z,0
2019-02-09T05:24:52.374Z,0
2019-02-09T05:25:52.353Z,0
2019-02-09T05:26:52.362Z,0
2019-02-09T05:27:52.388Z,0
2019-02-09T05:28:52.320Z,0
2019-02-09T05:29:52.290Z,0
2019-02-09T05:30:52.271Z,0
2019-02-09T05:31:52.011Z,0
2019-02-09T05:32:52.238Z,0
2019-02-09T05:33:52.222Z,0
2019-02-09T05:34:52.199Z,0
2019-02-09T05:35:51.967Z,0
2019-02-09T05:36:51.922Z,0
2019-02-09T05:37:52.153Z,0
2019-02-09T05:38:52.133Z,0
2019-02-09T05:39:52.119Z,0
2019-02-09T05:40:52.098Z,0
2019-02-09T05:41:52.085Z,0
2019-02-09T05:42:52.065Z,0
2019-02-09T05:43:51.800Z,0
2019-02-09T05:44:51.794Z,0
2019-02-09T05:45:52.011Z,0
2019-02-09T05:46:52.003Z,0
2019-02-09T05:47:51.985Z,0
2019-02-09T05:48:51.962Z,0
2019-02-09T05:49:51.948Z,0
2019-02-09T05:50:51.941Z,0
2019-02-09T05:51:51.663Z,0
2019-02-09T05:52:51.891Z,0
2019-02-09T05:53:51.874Z,0
2019-02-09T05:54:51.862Z,0
2019-02-09T05:55:51.847Z,0
2019-02-09T05:56:51.338Z,0
2019-02-09T05:57:51.819Z,0
2019-02-09T05:58:51.791Z,0
2019-02-09T05:59:51.790Z,0
2019-02-09T06:00:51.512Z,0
2019-02-09T06:01:51.502Z,0
2019-02-09T06:02:51.728Z,0
2019-02-09T06:03:51.715Z,0
2019-02-09T06:04:51.454Z,4
2019-02-09T06:05:51.672Z,4
2019-02-09T06:06:51.691Z,4
2019-02-09T06:07:51.637Z,0
2019-02-09T06:08:51.620Z,4
2019-02-09T06:09:51.598Z,8
2019-02-09T06:10:51.601Z,4
2019-02-09T06:11:51.343Z,8
2019-02-09T06:12:51.549Z,8
2019-02-09T06:13:51.301Z,8
2019-02-09T06:14:51.521Z,16
2019-02-09T06:15:51.494Z,16
2019-02-09T06:16:51.492Z,16
2019-02-09T06:17:51.462Z,20
2019-02-09T06:18:51.441Z,20
2019-02-09T06:19:51.432Z,24
2019-02-09T06:20:51.175Z,24
2019-02-09T06:21:51.392Z,32
2019-02-09T06:22:51.375Z,40
2019-02-09T06:23:51.359Z,44
2019-02-09T06:24:51.342Z,48
2019-02-09T06:25:51.485Z,52
2019-02-09T06:26:51.309Z,48
2019-02-09T06:27:51.325Z,48
2019-02-09T06:28:51.273Z,52
2019-02-09T06:29:51.258Z,60
2019-02-09T06:30:51.265Z,68
2019-02-09T06:31:51.908Z,80
2019-02-09T06:32:51.213Z,88
2019-02-09T06:33:51.185Z,84
2019-02-09T06:34:51.185Z,100
2019-02-09T06:35:51.164Z,124
2019-02-09T06:36:50.891Z,152
2019-02-09T06:37:50.868Z,176
2019-02-09T06:38:51.098Z,200
2019-02-09T06:39:51.098Z,216
2019-02-09T06:40:51.076Z,224
2019-02-09T06:41:51.053Z,228
2019-02-09T06:42:51.022Z,252
2019-02-09T06:43:51.013Z,260
2019-02-09T06:44:50.996Z,296
2019-02-09T06:45:50.974Z,320
2019-02-09T06:46:50.954Z,440
2019-02-09T06:47:50.697Z,696
2019-02-09T06:48:50.931Z,964
2019-02-09T06:49:50.903Z,1000
2019-02-09T06:50:50.888Z,856
2019-02-09T06:51:50.869Z,692
2019-02-09T06:52:50.856Z,740
2019-02-09T06:53:50.833Z,696
2019-02-09T06:54:50.568Z,712
2019-02-09T06:55:50.807Z,568
2019-02-09T06:56:50.786Z,504
2019-02-09T06:57:50.518Z,472
2019-02-09T06:58:50.751Z,584
2019-02-09T06:59:50.737Z,704
2019-02-09T07:00:50.726Z,712
2019-02-09T07:01:55.803Z,784
2019-02-09T07:02:50.483Z,740
2019-02-09T07:03:50.666Z,476
2019-02-09T07:04:50.649Z,464
2019-02-09T07:05:50.639Z,492
2019-02-09T07:06:50.585Z,596
2019-02-09T07:07:50.595Z,536
2019-02-09T07:08:50.339Z,524
2019-02-09T07:09:50.564Z,592
2019-02-09T07:10:50.544Z,680
2019-02-09T07:11:50.274Z,716
2019-02-09T07:12:50.510Z,616
2019-02-09T07:13:50.490Z,704
2019-02-09T07:14:50.479Z,636
2019-02-09T07:15:50.464Z,628
2019-02-09T07:16:50.442Z,616
2019-02-09T07:17:50.421Z,720
2019-02-09T07:18:50.405Z,732
2019-02-09T07:19:50.388Z,780
2019-02-09T07:20:50.370Z,872
2019-02-09T07:21:50.113Z,928
2019-02-09T07:22:50.088Z,920
2019-02-09T07:23:50.328Z,1032
2019-02-09T07:24:50.347Z,996
2019-02-09T07:25:50.308Z,1068
2019-02-09T07:26:50.270Z,1276
2019-02-09T07:27:50.263Z,1388
2019-02-09T07:28:50.000Z,1460
2019-02-09T07:29:50.221Z,1936
2019-02-09T07:30:50.203Z,1648
2019-02-09T07:31:56.287Z,1864
2019-02-09T07:32:49.922Z,2680
2019-02-09T07:33:50.149Z,2316
2019-02-09T07:34:49.936Z,3028
2019-02-09T07:35:51.026Z,3676
2019-02-09T07:36:50.151Z,3016
2019-02-09T07:37:50.097Z,4076
2019-02-09T07:38:50.070Z,4336
2019-02-09T07:39:50.051Z,3632
2019-02-09T07:40:49.783Z,3820
2019-02-09T07:41:50.034Z,3420
2019-02-09T07:42:50.038Z,3196
2019-02-09T07:43:49.996Z,4044
2019-02-09T07:44:49.969Z,4052
2019-02-09T07:45:49.951Z,4296
2019-02-09T07:46:49.936Z,4904
2019-02-09T07:47:49.673Z,5604
2019-02-09T07:48:49.910Z,6440
2019-02-09T07:49:49.881Z,6764
2019-02-09T07:50:49.863Z,4316
2019-02-09T07:51:49.602Z,3620
2019-02-09T07:52:49.849Z,2728
2019-02-09T07:53:49.819Z,2372
2019-02-09T07:54:49.808Z,2380
2019-02-09T07:55:49.788Z,2536
2019-02-09T07:56:49.768Z,3228
2019-02-09T07:57:49.750Z,4224
2019-02-09T07:58:49.742Z,5636
2019-02-09T07:59:49.478Z,3712
2019-02-09T08:00:49.463Z,4036
2019-02-09T08:01:49.685Z,5252
2019-02-09T08:02:49.673Z,5012
2019-02-09T08:03:49.655Z,5568
2019-02-09T08:04:49.673Z,5976
2019-02-09T08:05:49.620Z,5976
2019-02-09T08:06:49.609Z,6680
2019-02-09T08:07:49.342Z,6420
2019-02-09T08:08:49.575Z,3920
2019-02-09T08:09:49.310Z,3200
2019-02-09T08:10:49.306Z,3168
2019-02-09T08:11:49.278Z,3140
2019-02-09T08:12:49.511Z,3108
2019-02-09T08:13:49.497Z,2652
2019-02-09T08:14:49.477Z,2264
2019-02-09T08:15:49.462Z,2360
2019-02-09T08:16:49.448Z,2260
2019-02-09T08:17:49.431Z,2244
2019-02-09T08:18:49.419Z,2280
2019-02-09T08:19:49.407Z,2340
2019-02-09T08:20:49.137Z,2464
2019-02-09T08:21:49.365Z,2224
2019-02-09T08:22:49.352Z,2576
2019-02-09T08:23:49.334Z,3112
2019-02-09T08:24:49.325Z,4344
2019-02-09T08:25:49.300Z,4492
2019-02-09T08:26:49.291Z,3788
2019-02-09T08:27:49.276Z,3500
2019-02-09T08:28:49.019Z,3288
2019-02-09T08:29:49.236Z,2392
2019-02-09T08:30:49.220Z,2024
2019-02-09T08:31:49.249Z,2196
2019-02-09T08:32:49.201Z,2244
2019-02-09T08:33:49.172Z,2332
2019-02-09T08:34:48.909Z,2416
2019-02-09T08:35:48.897Z,2428
2019-02-09T08:36:49.127Z,2588
2019-02-09T08:37:48.869Z,2404
2019-02-09T08:38:49.095Z,2548
2019-02-09T08:39:49.083Z,2968
2019-02-09T08:40:48.825Z,2812
2019-02-09T08:41:49.049Z,4864
2019-02-09T08:42:49.037Z,4452
2019-02-09T08:43:49.016Z,3440
2019-02-09T08:44:48.996Z,3812
2019-02-09T08:45:48.996Z,3672
2019-02-09T08:46:48.470Z,3512
2019-02-09T08:47:48.761Z,5744
2019-02-09T08:48:48.934Z,7520
2019-02-09T08:49:48.694Z,7388
2019-02-09T08:50:48.907Z,7528
2019-02-09T08:51:48.905Z,6236
2019-02-09T08:52:48.622Z,9368
2019-02-09T08:53:49.281Z,7640
2019-02-09T08:54:48.863Z,6040
2019-02-09T08:55:48.824Z,5896
2019-02-09T08:56:48.807Z,5384
2019-02-09T08:57:48.791Z,6196
2019-02-09T08:58:48.778Z,6432
2019-02-09T08:59:48.761Z,5496
2019-02-09T09:00:48.747Z,4824
2019-02-09T09:01:48.734Z,4764
2019-02-09T09:02:48.719Z,5396
2019-02-09T09:03:48.699Z,4780
2019-02-09T09:04:48.686Z,4160
2019-02-09T09:05:48.726Z,4584
2019-02-09T09:06:48.410Z,4712
2019-02-09T09:07:48.639Z,3036
2019-02-09T09:08:48.632Z,2748
2019-02-09T09:09:48.361Z,2808
2019-02-09T09:10:48.597Z,2400
2019-02-09T09:11:48.577Z,2404
2019-02-09T09:12:48.562Z,2288
2019-02-09T09:13:48.568Z,2764
2019-02-09T09:14:48.532Z,3464
2019-02-09T09:15:48.515Z,2868
2019-02-09T09:16:48.514Z,2540
2019-02-09T09:17:48.486Z,2392
2019-02-09T09:18:48.473Z,2512
2019-02-09T09:19:48.207Z,2452
2019-02-09T09:20:48.449Z,2636
2019-02-09T09:21:48.423Z,2832
2019-02-09T09:22:48.446Z,3204
2019-02-09T09:23:48.392Z,3592
2019-02-09T09:24:48.381Z,4136
2019-02-09T09:25:48.366Z,5024
2019-02-09T09:26:48.353Z,4580
2019-02-09T09:27:48.378Z,5960
2019-02-09T09:28:48.314Z,7148
2019-02-09T09:29:48.316Z,7332
2019-02-09T09:30:48.284Z,6336
2019-02-09T09:31:48.270Z,6740
2019-02-09T09:32:48.253Z,6516
2019-02-09T09:33:48.240Z,7408
2019-02-09T09:34:48.219Z,6760
2019-02-09T09:35:48.251Z,7744
2019-02-09T09:36:48.199Z,7896
2019-02-09T09:37:48.182Z,7028
2019-02-09T09:38:48.162Z,5516
2019-02-09T09:39:48.146Z,4580
2019-02-09T09:40:48.131Z,5696
2019-02-09T09:41:47.870Z,5156
2019-02-09T09:42:48.101Z,3856
2019-02-09T09:43:47.840Z,4464
2019-02-09T09:44:48.079Z,5232
2019-02-09T09:45:47.809Z,5520
2019-02-09T09:46:48.059Z,4980
2019-02-09T09:47:48.024Z,4840
2019-02-09T09:48:48.005Z,4004
2019-02-09T09:49:47.991Z,4632
2019-02-09T09:50:48.051Z,4300
2019-02-09T09:51:47.964Z,4004
2019-02-09T09:52:47.952Z,4064
2019-02-09T09:53:47.684Z,3340
2019-02-09T09:54:47.918Z,3976
2019-02-09T09:55:47.902Z,3872
2019-02-09T09:56:47.893Z,4728
2019-02-09T09:57:47.880Z,4392
2019-02-09T09:58:47.608Z,4764
2019-02-09T09:59:47.592Z,4636
2019-02-09T10:00:47.829Z,4440
2019-02-09T10:01:47.820Z,5164
2019-02-09T10:02:47.801Z,6804
2019-02-09T10:03:47.786Z,5984
2019-02-09T10:04:47.766Z,5376
2019-02-09T10:05:47.516Z,5620
2019-02-09T10:06:47.732Z,5136
2019-02-09T10:07:47.724Z,5308
2019-02-09T10:08:47.707Z,5988
2019-02-09T10:09:47.690Z,5164
2019-02-09T10:10:47.716Z,4788
2019-02-09T10:11:47.413Z,4312
2019-02-09T10:12:47.398Z,4368
2019-02-09T10:13:47.635Z,3692
2019-02-09T10:14:47.613Z,3600
2019-02-09T10:15:47.610Z,4604
2019-02-09T10:16:48.080Z,5368
2019-02-09T10:17:47.570Z,6844
2019-02-09T10:18:47.590Z,6528
2019-02-09T10:19:47.538Z,5852
2019-02-09T10:20:47.279Z,8888
2019-02-09T10:21:47.260Z,7968
2019-02-09T10:22:47.242Z,10688
2019-02-09T10:23:49.999Z,8936
2019-02-09T10:24:47.463Z,8236
2019-02-09T10:25:47.455Z,8492
2019-02-09T10:26:47.436Z,6028
2019-02-09T10:27:47.198Z,5328
2019-02-09T10:28:47.402Z,4992
2019-02-09T10:29:47.387Z,4684
2019-02-09T10:30:47.378Z,4448
2019-02-09T10:31:47.371Z,5256
2019-02-09T10:32:51.772Z,6220
2019-02-09T10:33:47.330Z,9796
2019-02-09T10:34:47.316Z,9624
2019-02-09T10:35:47.304Z,10584
2019-02-09T10:36:46.786Z,9320
2019-02-09T10:37:47.271Z,10068
2019-02-09T10:38:47.012Z,11920
2019-02-09T10:39:46.998Z,7664
2019-02-09T10:40:47.234Z,6128
2019-02-09T10:41:47.215Z,5660
2019-02-09T10:42:47.200Z,5960
2019-02-09T10:43:46.943Z,5220
2019-02-09T10:44:47.169Z,4752
2019-02-09T10:45:47.175Z,4360
2019-02-09T10:46:48.691Z,4672
2019-02-09T10:47:47.169Z,5844
2019-02-09T10:48:47.117Z,8232
2019-02-09T10:49:47.101Z,10428
2019-02-09T10:50:47.108Z,10740
2019-02-09T10:51:46.822Z,11124
2019-02-09T10:52:47.056Z,9920
2019-02-09T10:53:47.042Z,9856
2019-02-09T10:54:47.035Z,7856
2019-02-09T10:55:47.014Z,7576
2019-02-09T10:56:46.994Z,9164
2019-02-09T10:57:48.810Z,6164
2019-02-09T10:58:46.976Z,5904
2019-02-09T10:59:46.954Z,8296
2019-02-09T11:00:46.995Z,7484
2019-02-09T11:01:46.928Z,7976
2019-02-09T11:02:55.882Z,5636
2019-02-09T11:03:46.683Z,4796
2019-02-09T11:04:46.888Z,3884
2019-02-09T11:05:46.889Z,4372
2019-02-09T11:06:46.861Z,4124
2019-02-09T11:07:46.844Z,5284
2019-02-09T11:08:46.851Z,5776
2019-02-09T11:09:46.815Z,6452
2019-02-09T11:10:46.810Z,5748
2019-02-09T11:11:46.790Z,4456
2019-02-09T11:12:46.525Z,4636
2019-02-09T11:13:46.756Z,5164
2019-02-09T11:14:46.743Z,5112
2019-02-09T11:15:46.483Z,4320
2019-02-09T11:16:46.716Z,7084
2019-02-09T11:17:46.711Z,5820
2019-02-09T11:18:46.687Z,6260
2019-02-09T11:19:46.720Z,6316
2019-02-09T11:20:46.412Z,5952
2019-02-09T11:21:46.643Z,9320
2019-02-09T11:22:46.382Z,7936
2019-02-09T11:23:46.373Z,6976
2019-02-09T11:24:46.605Z,6744
2019-02-09T11:25:46.588Z,5476
2019-02-09T11:26:46.571Z,5984
2019-02-09T11:27:46.557Z,6468
2019-02-09T11:28:46.346Z,8724
2019-02-09T11:29:46.278Z,8628
2019-02-09T11:30:46.517Z,9944
2019-02-09T11:31:46.501Z,9332
2019-02-09T11:32:46.239Z,8292
2019-02-09T11:33:46.867Z,6728
2019-02-09T11:34:46.241Z,7396
2019-02-09T11:35:46.452Z,8048
2019-02-09T11:36:46.437Z,7400
2019-02-09T11:37:46.169Z,6736
2019-02-09T11:38:46.407Z,7740
2019-02-09T11:39:46.142Z,10172
2019-02-09T11:40:46.373Z,9148
2019-02-09T11:41:46.357Z,8040
2019-02-09T11:42:46.342Z,9048
2019-02-09T11:43:46.326Z,9076
2019-02-09T11:44:47.953Z,10116
2019-02-09T11:45:46.303Z,9556
2019-02-09T11:46:45.816Z,11108
2019-02-09T11:47:46.030Z,7828
2019-02-09T11:48:46.310Z,9780
2019-02-09T11:49:46.778Z,14260
2019-02-09T11:50:46.236Z,10432
2019-02-09T11:51:46.250Z,8908
2019-02-09T11:52:46.206Z,10020
2019-02-09T11:53:46.234Z,9828
2019-02-09T11:54:45.688Z,8628
2019-02-09T11:55:45.668Z,8496
2019-02-09T11:56:46.216Z,6764
2019-02-09T11:57:46.146Z,5352
2019-02-09T11:58:46.122Z,7384
2019-02-09T11:59:46.106Z,3356
2019-02-09T12:00:46.092Z,5088
2019-02-09T12:01:46.174Z,6260
2019-02-09T12:02:46.068Z,5004
2019-02-09T12:03:45.883Z,7064
2019-02-09T12:04:46.041Z,7088
2019-02-09T12:05:46.035Z,7964
2019-02-09T12:06:46.007Z,6240
2019-02-09T12:07:45.992Z,5128
2019-02-09T12:08:45.978Z,3008
2019-02-09T12:09:45.963Z,3156
2019-02-09T12:10:45.702Z,2604
2019-02-09T12:11:45.937Z,4608
2019-02-09T12:12:45.939Z,3672
2019-02-09T12:13:45.906Z,3440
2019-02-09T12:14:45.652Z,3892
2019-02-09T12:15:45.893Z,3248
2019-02-09T12:16:45.861Z,2904
2019-02-09T12:17:45.851Z,3420
2019-02-09T12:18:45.588Z,4412
2019-02-09T12:19:45.884Z,6180
2019-02-09T12:20:45.810Z,4000
2019-02-09T12:21:45.548Z,4016
2019-02-09T12:22:45.782Z,6592
2019-02-09T12:23:45.519Z,10052
2019-02-09T12:24:45.750Z,10164
2019-02-09T12:25:45.491Z,10068
2019-02-09T12:26:45.478Z,9404
2019-02-09T12:27:45.709Z,6892
2019-02-09T12:28:45.473Z,7968
2019-02-09T12:29:45.441Z,6928
2019-02-09T12:30:45.674Z,6600
2019-02-09T12:31:45.652Z,6320
2019-02-09T12:32:45.664Z,4360
2019-02-09T12:33:45.129Z,3884
2019-02-09T12:34:45.609Z,3476
2019-02-09T12:35:46.292Z,3300
2019-02-09T12:36:45.336Z,3072
2019-02-09T12:37:45.570Z,3180
2019-02-09T12:38:45.310Z,4472
2019-02-09T12:39:45.045Z,4512
2019-02-09T12:40:45.542Z,3528
2019-02-09T12:41:45.515Z,3100
2019-02-09T12:42:45.260Z,3016
2019-02-09T12:43:45.485Z,2852
2019-02-09T12:44:45.524Z,2740
2019-02-09T12:45:45.455Z,3140
2019-02-09T12:46:45.444Z,5156
2019-02-09T12:47:45.436Z,6776
2019-02-09T12:48:45.422Z,6928
2019-02-09T12:49:45.157Z,7324
2019-02-09T12:50:45.444Z,7268
2019-02-09T12:51:45.133Z,7284
2019-02-09T12:52:45.361Z,6900
2019-02-09T12:53:45.351Z,9396
2019-02-09T12:54:45.083Z,9960
2019-02-09T12:55:45.329Z,5344
2019-02-09T12:56:45.307Z,5392
2019-02-09T12:57:45.292Z,5452
2019-02-09T12:58:45.279Z,3700
2019-02-09T12:59:45.265Z,3164
2019-02-09T13:00:45.259Z,2796
2019-02-09T13:01:45.235Z,2636
2019-02-09T13:02:45.220Z,2572
2019-02-09T13:03:44.709Z,2532
2019-02-09T13:04:44.943Z,2544
2019-02-09T13:05:45.193Z,2512
2019-02-09T13:06:44.919Z,2508
2019-02-09T13:07:46.042Z,2144
2019-02-09T13:08:44.891Z,2428
2019-02-09T13:09:44.919Z,2752
2019-02-09T13:10:44.866Z,2732
2019-02-09T13:11:45.135Z,2804
2019-02-09T13:12:45.090Z,2500
2019-02-09T13:13:44.818Z,2604
2019-02-09T13:14:45.099Z,2656
2019-02-09T13:15:45.047Z,2564
2019-02-09T13:16:45.024Z,2444
2019-02-09T13:17:45.007Z,2108
2019-02-09T13:18:44.995Z,2052
2019-02-09T13:19:45.022Z,1952
2019-02-09T13:20:44.972Z,1916
2019-02-09T13:21:44.947Z,2456
2019-02-09T13:22:44.736Z,3136
2019-02-09T13:23:44.924Z,4000
2019-02-09T13:24:44.908Z,6764
2019-02-09T13:25:44.652Z,10008
2019-02-09T13:26:44.876Z,7132
2019-02-09T13:27:44.866Z,4332
2019-02-09T13:28:44.854Z,2868
2019-02-09T13:29:44.934Z,2452
2019-02-09T13:30:44.581Z,2244
2019-02-09T13:31:44.561Z,2192
2019-02-09T13:32:44.795Z,1980
2019-02-09T13:33:46.292Z,2056
2019-02-09T13:34:44.765Z,2032
2019-02-09T13:35:44.764Z,2028
2019-02-09T13:36:44.236Z,2060
2019-02-09T13:37:44.722Z,2028
2019-02-09T13:38:44.717Z,2096
2019-02-09T13:39:44.693Z,2308
2019-02-09T13:40:44.684Z,2888
2019-02-09T13:41:44.721Z,3132
2019-02-09T13:42:44.647Z,3300
2019-02-09T13:43:44.139Z,4020
2019-02-09T13:44:44.425Z,4664
2019-02-09T13:45:44.619Z,4236
2019-02-09T13:46:44.585Z,3572
2019-02-09T13:47:44.573Z,3312
2019-02-09T13:48:44.559Z,2756
2019-02-09T13:49:44.617Z,2804
2019-02-09T13:50:44.351Z,3276
2019-02-09T13:51:44.532Z,3468
2019-02-09T13:52:44.500Z,3772
2019-02-09T13:53:44.483Z,5536
2019-02-09T13:54:44.467Z,5168
2019-02-09T13:55:44.209Z,5472
2019-02-09T13:56:44.437Z,4924
2019-02-09T13:57:44.429Z,4512
2019-02-09T13:58:43.911Z,4848